sensor_id;sensor_type;location;lat;lon;timestamp;P1;durP1;ratioP1;P2;durP2;ratioP2
50219;SDS011;36110;51.536;7.562;2023-07-31T00:02:15;1.65;;;1.30;;
50219;SDS011;36110;51.536;7.562;2023-07-31T00:04:40;2.53;;;1.50;;
50219;SDS011;36110;51.536;7.562;2023-07-31T00:07:06;2.83;;;1.63;;
50219;SDS011;36110;51.536;7.562;2023-07-31T00:09:32;5.03;;;1.95;;
50219;SDS011;36110;51.536;7.562;2023-07-31T00:11:57;1.42;;;1.23;;
50219;SDS011;36110;51.536;7.562;2023-07-31T00:14:23;1.45;;;1.25;;
50219;SDS011;36110;51.536;7.562;2023-07-31T00:16:48;1.20;;;1.10;;
50219;SDS011;36110;51.536;7.562;2023-07-31T00:19:13;1.63;;;1.50;;
50219;SDS011;36110;51.536;7.562;2023-07-31T00:21:39;2.00;;;1.45;;
50219;SDS011;36110;51.536;7.562;2023-07-31T00:24:04;0.85;;;0.85;;
50219;SDS011;36110;51.536;7.562;2023-07-31T00:26:29;1.20;;;1.10;;
50219;SDS011;36110;51.536;7.562;2023-07-31T00:28:55;0.90;;;0.90;;
50219;SDS011;36110;51.536;7.562;2023-07-31T00:31:20;1.40;;;1.20;;
50219;SDS011;36110;51.536;7.562;2023-07-31T00:33:45;1.63;;;1.40;;
50219;SDS011;36110;51.536;7.562;2023-07-31T00:36:11;2.75;;;2.22;;
50219;SDS011;36110;51.536;7.562;2023-07-31T00:38:36;3.38;;;1.90;;
50219;SDS011;36110;51.536;7.562;2023-07-31T00:41:01;4.03;;;2.13;;
50219;SDS011;36110;51.536;7.562;2023-07-31T00:43:27;1.45;;;1.15;;
50219;SDS011;36110;51.536;7.562;2023-07-31T00:45:52;2.70;;;1.83;;
50219;SDS011;36110;51.536;7.562;2023-07-31T00:48:18;1.10;;;1.08;;
50219;SDS011;36110;51.536;7.562;2023-07-31T00:50:43;2.20;;;1.45;;
50219;SDS011;36110;51.536;7.562;2023-07-31T00:53:08;2.38;;;1.65;;
50219;SDS011;36110;51.536;7.562;2023-07-31T00:55:34;6.35;;;2.92;;
50219;SDS011;36110;51.536;7.562;2023-07-31T00:57:59;1.85;;;1.33;;
50219;SDS011;36110;51.536;7.562;2023-07-31T01:00:25;2.67;;;1.50;;
50219;SDS011;36110;51.536;7.562;2023-07-31T01:02:50;1.42;;;1.33;;
50219;SDS011;36110;51.536;7.562;2023-07-31T01:05:16;4.10;;;1.85;;
50219;SDS011;36110;51.536;7.562;2023-07-31T01:07:45;6.80;;;2.75;;
50219;SDS011;36110;51.536;7.562;2023-07-31T01:10:16;3.15;;;1.70;;
50219;SDS011;36110;51.536;7.562;2023-07-31T01:12:44;4.55;;;2.50;;
50219;SDS011;36110;51.536;7.562;2023-07-31T01:15:10;1.20;;;1.10;;
50219;SDS011;36110;51.536;7.562;2023-07-31T01:17:36;4.60;;;2.58;;
50219;SDS011;36110;51.536;7.562;2023-07-31T01:20:03;2.38;;;1.60;;
50219;SDS011;36110;51.536;7.562;2023-07-31T01:27:42;4.05;;;1.80;;
50219;SDS011;36110;51.536;7.562;2023-07-31T01:30:16;1.10;;;1.00;;
50219;SDS011;36110;51.536;7.562;2023-07-31T01:32:47;5.35;;;2.67;;
50219;SDS011;36110;51.536;7.562;2023-07-31T01:35:13;5.95;;;3.08;;
50219;SDS011;36110;51.536;7.562;2023-07-31T01:37:39;2.45;;;1.77;;
50219;SDS011;36110;51.536;7.562;2023-07-31T01:40:04;1.52;;;1.40;;
50219;SDS011;36110;51.536;7.562;2023-07-31T01:42:30;4.45;;;2.42;;
50219;SDS011;36110;51.536;7.562;2023-07-31T01:44:56;6.35;;;2.65;;
50219;SDS011;36110;51.536;7.562;2023-07-31T01:47:21;4.90;;;2.88;;
50219;SDS011;36110;51.536;7.562;2023-07-31T01:49:48;11.48;;;3.92;;
50219;SDS011;36110;51.536;7.562;2023-07-31T01:52:13;5.28;;;2.28;;
50219;SDS011;36110;51.536;7.562;2023-07-31T01:54:39;6.60;;;2.78;;
50219;SDS011;36110;51.536;7.562;2023-07-31T01:57:04;2.80;;;1.38;;
50219;SDS011;36110;51.536;7.562;2023-07-31T01:59:29;6.80;;;3.05;;
50219;SDS011;36110;51.536;7.562;2023-07-31T02:01:55;6.00;;;2.92;;
50219;SDS011;36110;51.536;7.562;2023-07-31T02:04:20;10.13;;;4.32;;
50219;SDS011;36110;51.536;7.562;2023-07-31T02:06:45;3.67;;;1.88;;
50219;SDS011;36110;51.536;7.562;2023-07-31T02:09:11;6.55;;;2.28;;
50219;SDS011;36110;51.536;7.562;2023-07-31T02:11:36;1.58;;;1.40;;
50219;SDS011;36110;51.536;7.562;2023-07-31T02:14:01;4.38;;;2.28;;
50219;SDS011;36110;51.536;7.562;2023-07-31T02:16:27;5.10;;;2.13;;
50219;SDS011;36110;51.536;7.562;2023-07-31T02:18:52;3.08;;;1.67;;
50219;SDS011;36110;51.536;7.562;2023-07-31T02:21:17;5.43;;;3.08;;
50219;SDS011;36110;51.536;7.562;2023-07-31T02:23:43;5.63;;;2.75;;
50219;SDS011;36110;51.536;7.562;2023-07-31T02:26:08;5.07;;;2.80;;
50219;SDS011;36110;51.536;7.562;2023-07-31T02:28:33;6.15;;;3.42;;
50219;SDS011;36110;51.536;7.562;2023-07-31T02:30:58;2.50;;;1.85;;
50219;SDS011;36110;51.536;7.562;2023-07-31T02:33:24;3.35;;;1.98;;
50219;SDS011;36110;51.536;7.562;2023-07-31T02:35:49;5.60;;;2.58;;
50219;SDS011;36110;51.536;7.562;2023-07-31T02:38:14;1.77;;;1.48;;
50219;SDS011;36110;51.536;7.562;2023-07-31T02:40:40;1.88;;;1.67;;
50219;SDS011;36110;51.536;7.562;2023-07-31T02:43:08;4.75;;;2.58;;
50219;SDS011;36110;51.536;7.562;2023-07-31T02:45:34;6.75;;;2.65;;
50219;SDS011;36110;51.536;7.562;2023-07-31T02:47:59;8.32;;;3.88;;
50219;SDS011;36110;51.536;7.562;2023-07-31T02:50:25;4.93;;;2.70;;
50219;SDS011;36110;51.536;7.562;2023-07-31T02:52:50;7.70;;;3.28;;
50219;SDS011;36110;51.536;7.562;2023-07-31T02:55:15;4.88;;;2.53;;
50219;SDS011;36110;51.536;7.562;2023-07-31T02:57:40;9.60;;;4.05;;
50219;SDS011;36110;51.536;7.562;2023-07-31T03:00:06;3.80;;;2.13;;
50219;SDS011;36110;51.536;7.562;2023-07-31T03:02:32;8.48;;;3.53;;
50219;SDS011;36110;51.536;7.562;2023-07-31T03:04:57;3.33;;;1.70;;
50219;SDS011;36110;51.536;7.562;2023-07-31T03:07:22;4.75;;;2.20;;
50219;SDS011;36110;51.536;7.562;2023-07-31T03:09:48;5.70;;;2.13;;
50219;SDS011;36110;51.536;7.562;2023-07-31T03:12:13;7.47;;;3.80;;
50219;SDS011;36110;51.536;7.562;2023-07-31T03:14:38;3.15;;;1.95;;
50219;SDS011;36110;51.536;7.562;2023-07-31T03:17:04;2.15;;;1.80;;
50219;SDS011;36110;51.536;7.562;2023-07-31T03:19:32;2.58;;;1.65;;
50219;SDS011;36110;51.536;7.562;2023-07-31T03:21:58;6.43;;;2.33;;
50219;SDS011;36110;51.536;7.562;2023-07-31T03:24:26;7.13;;;3.00;;
50219;SDS011;36110;51.536;7.562;2023-07-31T03:26:51;4.85;;;2.75;;
50219;SDS011;36110;51.536;7.562;2023-07-31T03:29:16;3.30;;;2.00;;
50219;SDS011;36110;51.536;7.562;2023-07-31T03:31:42;5.13;;;2.88;;
50219;SDS011;36110;51.536;7.562;2023-07-31T03:34:07;4.28;;;2.33;;
50219;SDS011;36110;51.536;7.562;2023-07-31T03:36:32;2.17;;;1.70;;
50219;SDS011;36110;51.536;7.562;2023-07-31T03:38:58;9.80;;;4.15;;
50219;SDS011;36110;51.536;7.562;2023-07-31T03:41:23;7.80;;;3.22;;
50219;SDS011;36110;51.536;7.562;2023-07-31T03:43:49;8.43;;;3.25;;
50219;SDS011;36110;51.536;7.562;2023-07-31T03:46:16;4.72;;;2.25;;
50219;SDS011;36110;51.536;7.562;2023-07-31T03:48:42;6.93;;;4.10;;
50219;SDS011;36110;51.536;7.562;2023-07-31T03:51:07;6.07;;;3.15;;
50219;SDS011;36110;51.536;7.562;2023-07-31T03:53:32;3.40;;;2.35;;
50219;SDS011;36110;51.536;7.562;2023-07-31T03:55:57;6.30;;;3.05;;
50219;SDS011;36110;51.536;7.562;2023-07-31T03:58:23;6.22;;;2.83;;
50219;SDS011;36110;51.536;7.562;2023-07-31T04:00:48;9.88;;;4.18;;
50219;SDS011;36110;51.536;7.562;2023-07-31T04:03:13;9.35;;;3.47;;
50219;SDS011;36110;51.536;7.562;2023-07-31T04:05:39;5.88;;;2.55;;
50219;SDS011;36110;51.536;7.562;2023-07-31T04:08:05;6.30;;;2.53;;
50219;SDS011;36110;51.536;7.562;2023-07-31T04:10:30;5.95;;;2.90;;
50219;SDS011;36110;51.536;7.562;2023-07-31T04:12:58;4.32;;;2.55;;
50219;SDS011;36110;51.536;7.562;2023-07-31T04:15:23;8.05;;;3.28;;
50219;SDS011;36110;51.536;7.562;2023-07-31T04:17:48;6.90;;;3.08;;
50219;SDS011;36110;51.536;7.562;2023-07-31T04:20:14;4.25;;;2.88;;
50219;SDS011;36110;51.536;7.562;2023-07-31T04:22:39;3.97;;;2.45;;
50219;SDS011;36110;51.536;7.562;2023-07-31T04:25:04;7.35;;;3.08;;
50219;SDS011;36110;51.536;7.562;2023-07-31T04:27:30;7.05;;;3.30;;
50219;SDS011;36110;51.536;7.562;2023-07-31T04:29:55;8.60;;;4.10;;
50219;SDS011;36110;51.536;7.562;2023-07-31T04:32:21;6.97;;;3.25;;
50219;SDS011;36110;51.536;7.562;2023-07-31T04:34:46;4.30;;;2.67;;
50219;SDS011;36110;51.536;7.562;2023-07-31T04:37:11;8.32;;;3.15;;
50219;SDS011;36110;51.536;7.562;2023-07-31T04:39:37;3.90;;;2.47;;
50219;SDS011;36110;51.536;7.562;2023-07-31T04:42:02;3.85;;;2.13;;
50219;SDS011;36110;51.536;7.562;2023-07-31T04:44:27;6.28;;;2.88;;
50219;SDS011;36110;51.536;7.562;2023-07-31T04:46:53;4.28;;;2.58;;
50219;SDS011;36110;51.536;7.562;2023-07-31T04:49:18;4.53;;;2.20;;
50219;SDS011;36110;51.536;7.562;2023-07-31T04:51:44;7.68;;;3.45;;
50219;SDS011;36110;51.536;7.562;2023-07-31T04:54:09;5.95;;;2.92;;
50219;SDS011;36110;51.536;7.562;2023-07-31T04:56:34;4.65;;;2.83;;
50219;SDS011;36110;51.536;7.562;2023-07-31T04:59:02;8.23;;;3.08;;
50219;SDS011;36110;51.536;7.562;2023-07-31T05:01:27;3.17;;;1.80;;
50219;SDS011;36110;51.536;7.562;2023-07-31T05:03:53;4.03;;;2.38;;
50219;SDS011;36110;51.536;7.562;2023-07-31T05:06:18;2.33;;;1.83;;
50219;SDS011;36110;51.536;7.562;2023-07-31T05:08:45;8.25;;;3.38;;
50219;SDS011;36110;51.536;7.562;2023-07-31T05:11:11;3.50;;;2.28;;
50219;SDS011;36110;51.536;7.562;2023-07-31T05:13:37;3.83;;;2.08;;
50219;SDS011;36110;51.536;7.562;2023-07-31T05:16:02;3.17;;;2.20;;
50219;SDS011;36110;51.536;7.562;2023-07-31T05:18:28;3.63;;;2.53;;
50219;SDS011;36110;51.536;7.562;2023-07-31T05:20:53;7.90;;;3.40;;
50219;SDS011;36110;51.536;7.562;2023-07-31T05:23:18;3.38;;;2.15;;
50219;SDS011;36110;51.536;7.562;2023-07-31T05:25:43;3.58;;;2.88;;
50219;SDS011;36110;51.536;7.562;2023-07-31T05:28:09;7.28;;;3.67;;
50219;SDS011;36110;51.536;7.562;2023-07-31T05:30:34;9.85;;;4.47;;
50219;SDS011;36110;51.536;7.562;2023-07-31T05:32:59;11.45;;;4.13;;
50219;SDS011;36110;51.536;7.562;2023-07-31T05:35:25;10.20;;;4.38;;
50219;SDS011;36110;51.536;7.562;2023-07-31T05:37:50;14.48;;;4.47;;
50219;SDS011;36110;51.536;7.562;2023-07-31T05:40:15;8.98;;;4.25;;
50219;SDS011;36110;51.536;7.562;2023-07-31T05:42:40;10.15;;;4.45;;
50219;SDS011;36110;51.536;7.562;2023-07-31T05:45:06;8.82;;;4.00;;
50219;SDS011;36110;51.536;7.562;2023-07-31T05:47:32;10.20;;;3.50;;
50219;SDS011;36110;51.536;7.562;2023-07-31T05:49:57;7.32;;;3.70;;
50219;SDS011;36110;51.536;7.562;2023-07-31T05:52:23;8.63;;;3.83;;
50219;SDS011;36110;51.536;7.562;2023-07-31T05:54:48;12.07;;;4.78;;
50219;SDS011;36110;51.536;7.562;2023-07-31T05:57:13;6.18;;;3.50;;
50219;SDS011;36110;51.536;7.562;2023-07-31T05:59:39;13.55;;;4.93;;
50219;SDS011;36110;51.536;7.562;2023-07-31T06:02:04;11.57;;;4.38;;
50219;SDS011;36110;51.536;7.562;2023-07-31T06:04:29;11.95;;;4.22;;
50219;SDS011;36110;51.536;7.562;2023-07-31T06:06:55;10.27;;;4.03;;
50219;SDS011;36110;51.536;7.562;2023-07-31T06:09:21;9.75;;;3.78;;
50219;SDS011;36110;51.536;7.562;2023-07-31T06:11:46;8.57;;;4.10;;
50219;SDS011;36110;51.536;7.562;2023-07-31T06:14:11;9.10;;;4.13;;
50219;SDS011;36110;51.536;7.562;2023-07-31T06:16:37;6.18;;;3.22;;
50219;SDS011;36110;51.536;7.562;2023-07-31T06:19:02;7.43;;;3.70;;
50219;SDS011;36110;51.536;7.562;2023-07-31T06:21:27;6.43;;;3.60;;
50219;SDS011;36110;51.536;7.562;2023-07-31T06:23:53;5.05;;;3.30;;
50219;SDS011;36110;51.536;7.562;2023-07-31T06:26:18;6.78;;;3.80;;
50219;SDS011;36110;51.536;7.562;2023-07-31T06:28:43;8.50;;;3.70;;
50219;SDS011;36110;51.536;7.562;2023-07-31T06:31:09;8.32;;;3.80;;
50219;SDS011;36110;51.536;7.562;2023-07-31T06:33:34;8.63;;;4.20;;
50219;SDS011;36110;51.536;7.562;2023-07-31T06:36:00;8.10;;;4.00;;
50219;SDS011;36110;51.536;7.562;2023-07-31T06:38:25;7.45;;;3.67;;
50219;SDS011;36110;51.536;7.562;2023-07-31T06:40:51;9.27;;;5.03;;
50219;SDS011;36110;51.536;7.562;2023-07-31T06:43:16;7.45;;;3.67;;
50219;SDS011;36110;51.536;7.562;2023-07-31T06:45:42;9.20;;;4.40;;
50219;SDS011;36110;51.536;7.562;2023-07-31T06:48:07;7.93;;;4.05;;
50219;SDS011;36110;51.536;7.562;2023-07-31T06:50:32;6.20;;;3.47;;
50219;SDS011;36110;51.536;7.562;2023-07-31T06:52:58;9.32;;;4.13;;
50219;SDS011;36110;51.536;7.562;2023-07-31T06:55:24;5.32;;;2.92;;
50219;SDS011;36110;51.536;7.562;2023-07-31T06:57:51;6.95;;;4.03;;
50219;SDS011;36110;51.536;7.562;2023-07-31T07:00:18;5.85;;;3.08;;
50219;SDS011;36110;51.536;7.562;2023-07-31T07:02:44;7.43;;;3.72;;
50219;SDS011;36110;51.536;7.562;2023-07-31T07:05:10;9.10;;;4.65;;
50219;SDS011;36110;51.536;7.562;2023-07-31T07:07:35;4.13;;;3.17;;
50219;SDS011;36110;51.536;7.562;2023-07-31T07:10:01;6.25;;;3.85;;
50219;SDS011;36110;51.536;7.562;2023-07-31T07:12:29;8.35;;;3.63;;
50219;SDS011;36110;51.536;7.562;2023-07-31T07:14:54;6.18;;;3.13;;
50219;SDS011;36110;51.536;7.562;2023-07-31T07:17:20;8.07;;;4.10;;
50219;SDS011;36110;51.536;7.562;2023-07-31T07:19:45;6.78;;;4.15;;
50219;SDS011;36110;51.536;7.562;2023-07-31T07:22:12;6.03;;;3.60;;
50219;SDS011;36110;51.536;7.562;2023-07-31T07:24:38;6.65;;;3.95;;
50219;SDS011;36110;51.536;7.562;2023-07-31T07:27:03;6.97;;;3.92;;
50219;SDS011;36110;51.536;7.562;2023-07-31T07:29:29;6.15;;;3.60;;
50219;SDS011;36110;51.536;7.562;2023-07-31T07:31:55;5.45;;;3.45;;
50219;SDS011;36110;51.536;7.562;2023-07-31T07:34:22;4.38;;;2.92;;
50219;SDS011;36110;51.536;7.562;2023-07-31T07:36:49;5.30;;;3.92;;
50219;SDS011;36110;51.536;7.562;2023-07-31T07:39:14;6.50;;;3.63;;
50219;SDS011;36110;51.536;7.562;2023-07-31T07:41:40;4.13;;;3.10;;
50219;SDS011;36110;51.536;7.562;2023-07-31T07:44:05;4.60;;;3.45;;
50219;SDS011;36110;51.536;7.562;2023-07-31T07:46:30;7.80;;;3.40;;
50219;SDS011;36110;51.536;7.562;2023-07-31T07:48:56;5.30;;;3.38;;
50219;SDS011;36110;51.536;7.562;2023-07-31T07:51:21;7.30;;;4.00;;
50219;SDS011;36110;51.536;7.562;2023-07-31T07:53:46;3.97;;;3.10;;
50219;SDS011;36110;51.536;7.562;2023-07-31T07:56:12;4.40;;;3.10;;
50219;SDS011;36110;51.536;7.562;2023-07-31T07:58:37;5.68;;;3.40;;
50219;SDS011;36110;51.536;7.562;2023-07-31T08:01:02;5.13;;;3.17;;
50219;SDS011;36110;51.536;7.562;2023-07-31T08:03:28;4.22;;;2.88;;
50219;SDS011;36110;51.536;7.562;2023-07-31T08:05:57;3.40;;;2.58;;
50219;SDS011;36110;51.536;7.562;2023-07-31T08:08:23;4.93;;;3.10;;
50219;SDS011;36110;51.536;7.562;2023-07-31T08:10:48;3.50;;;2.80;;
50219;SDS011;36110;51.536;7.562;2023-07-31T08:13:13;4.78;;;3.58;;
50219;SDS011;36110;51.536;7.562;2023-07-31T08:15:40;3.53;;;2.63;;
50219;SDS011;36110;51.536;7.562;2023-07-31T08:18:06;5.20;;;2.92;;
50219;SDS011;36110;51.536;7.562;2023-07-31T08:20:31;5.28;;;3.25;;
50219;SDS011;36110;51.536;7.562;2023-07-31T08:22:56;6.28;;;3.22;;
50219;SDS011;36110;51.536;7.562;2023-07-31T08:25:23;5.85;;;3.50;;
50219;SDS011;36110;51.536;7.562;2023-07-31T08:27:48;4.97;;;2.80;;
50219;SDS011;36110;51.536;7.562;2023-07-31T08:30:13;4.43;;;3.10;;
50219;SDS011;36110;51.536;7.562;2023-07-31T08:32:39;3.78;;;3.05;;
50219;SDS011;36110;51.536;7.562;2023-07-31T08:35:04;5.90;;;3.20;;
50219;SDS011;36110;51.536;7.562;2023-07-31T08:37:29;3.30;;;2.70;;
50219;SDS011;36110;51.536;7.562;2023-07-31T08:39:55;6.72;;;3.35;;
50219;SDS011;36110;51.536;7.562;2023-07-31T08:42:20;4.25;;;3.05;;
50219;SDS011;36110;51.536;7.562;2023-07-31T08:44:46;6.38;;;3.45;;
50219;SDS011;36110;51.536;7.562;2023-07-31T08:47:12;4.25;;;2.80;;
50219;SDS011;36110;51.536;7.562;2023-07-31T08:49:37;4.22;;;3.15;;
50219;SDS011;36110;51.536;7.562;2023-07-31T08:52:03;5.30;;;3.17;;
50219;SDS011;36110;51.536;7.562;2023-07-31T08:54:29;3.53;;;2.95;;
50219;SDS011;36110;51.536;7.562;2023-07-31T08:56:56;3.65;;;2.47;;
50219;SDS011;36110;51.536;7.562;2023-07-31T08:59:21;3.97;;;2.70;;
50219;SDS011;36110;51.536;7.562;2023-07-31T09:01:48;4.93;;;3.10;;
50219;SDS011;36110;51.536;7.562;2023-07-31T09:04:15;3.63;;;2.92;;
50219;SDS011;36110;51.536;7.562;2023-07-31T09:06:41;3.17;;;2.58;;
50219;SDS011;36110;51.536;7.562;2023-07-31T09:09:07;3.13;;;2.65;;
50219;SDS011;36110;51.536;7.562;2023-07-31T09:11:32;4.95;;;2.83;;
50219;SDS011;36110;51.536;7.562;2023-07-31T09:13:58;3.70;;;2.72;;
50219;SDS011;36110;51.536;7.562;2023-07-31T09:16:29;3.05;;;2.40;;
50219;SDS011;36110;51.536;7.562;2023-07-31T09:18:58;3.40;;;2.25;;
50219;SDS011;36110;51.536;7.562;2023-07-31T09:21:24;2.25;;;2.00;;
50219;SDS011;36110;51.536;7.562;2023-07-31T09:23:50;4.15;;;2.67;;
50219;SDS011;36110;51.536;7.562;2023-07-31T09:29:00;3.08;;;2.30;;
50219;SDS011;36110;51.536;7.562;2023-07-31T09:31:33;2.63;;;2.35;;
50219;SDS011;36110;51.536;7.562;2023-07-31T09:34:03;3.70;;;2.47;;
50219;SDS011;36110;51.536;7.562;2023-07-31T09:36:29;3.17;;;2.40;;
50219;SDS011;36110;51.536;7.562;2023-07-31T09:38:55;2.30;;;2.10;;
50219;SDS011;36110;51.536;7.562;2023-07-31T09:41:21;3.03;;;2.40;;
50219;SDS011;36110;51.536;7.562;2023-07-31T09:43:55;2.33;;;2.13;;
50219;SDS011;36110;51.536;7.562;2023-07-31T09:46:21;2.50;;;2.30;;
50219;SDS011;36110;51.536;7.562;2023-07-31T09:48:46;2.78;;;2.47;;
50219;SDS011;36110;51.536;7.562;2023-07-31T09:51:12;2.28;;;2.08;;
50219;SDS011;36110;51.536;7.562;2023-07-31T09:53:37;3.58;;;2.50;;
50219;SDS011;36110;51.536;7.562;2023-07-31T09:58:29;3.10;;;2.38;;
50219;SDS011;36110;51.536;7.562;2023-07-31T10:00:57;3.42;;;2.45;;
50219;SDS011;36110;51.536;7.562;2023-07-31T10:03:24;2.30;;;2.10;;
50219;SDS011;36110;51.536;7.562;2023-07-31T10:05:50;3.53;;;2.20;;
50219;SDS011;36110;51.536;7.562;2023-07-31T10:08:16;2.85;;;2.45;;
50219;SDS011;36110;51.536;7.562;2023-07-31T10:10:44;2.45;;;2.25;;
50219;SDS011;36110;51.536;7.562;2023-07-31T10:13:10;2.85;;;2.35;;
50219;SDS011;36110;51.536;7.562;2023-07-31T10:15:37;3.00;;;2.33;;
50219;SDS011;36110;51.536;7.562;2023-07-31T10:18:03;3.60;;;2.50;;
50219;SDS011;36110;51.536;7.562;2023-07-31T10:20:30;4.30;;;2.40;;
50219;SDS011;36110;51.536;7.562;2023-07-31T10:22:56;3.33;;;2.33;;
50219;SDS011;36110;51.536;7.562;2023-07-31T10:25:22;2.72;;;2.38;;
50219;SDS011;36110;51.536;7.562;2023-07-31T10:27:47;2.72;;;2.17;;
50219;SDS011;36110;51.536;7.562;2023-07-31T10:30:14;2.40;;;2.20;;
50219;SDS011;36110;51.536;7.562;2023-07-31T10:32:41;2.72;;;2.38;;
50219;SDS011;36110;51.536;7.562;2023-07-31T10:35:07;2.40;;;2.20;;
50219;SDS011;36110;51.536;7.562;2023-07-31T10:37:37;2.65;;;2.20;;
50219;SDS011;36110;51.536;7.562;2023-07-31T10:40:11;3.40;;;2.22;;
50219;SDS011;36110;51.536;7.562;2023-07-31T10:42:45;3.10;;;2.67;;
50219;SDS011;36110;51.536;7.562;2023-07-31T10:45:31;2.30;;;2.10;;
50219;SDS011;36110;51.536;7.562;2023-07-31T10:48:05;2.40;;;2.00;;
50219;SDS011;36110;51.536;7.562;2023-07-31T10:50:31;2.20;;;2.00;;
50219;SDS011;36110;51.536;7.562;2023-07-31T10:53:03;2.20;;;1.90;;
50219;SDS011;36110;51.536;7.562;2023-07-31T10:58:00;2.33;;;1.95;;
50219;SDS011;36110;51.536;7.562;2023-07-31T11:00:31;2.22;;;1.70;;
50219;SDS011;36110;51.536;7.562;2023-07-31T11:02:58;2.08;;;1.75;;
50219;SDS011;36110;51.536;7.562;2023-07-31T11:08:20;2.10;;;1.63;;
50219;SDS011;36110;51.536;7.562;2023-07-31T11:10:49;1.95;;;1.80;;
50219;SDS011;36110;51.536;7.562;2023-07-31T11:13:30;1.73;;;1.60;;
50219;SDS011;36110;51.536;7.562;2023-07-31T11:16:05;2.35;;;1.90;;
50219;SDS011;36110;51.536;7.562;2023-07-31T11:18:31;3.40;;;1.88;;
50219;SDS011;36110;51.536;7.562;2023-07-31T11:20:56;1.88;;;1.50;;
50219;SDS011;36110;51.536;7.562;2023-07-31T11:23:22;1.70;;;1.60;;
50219;SDS011;36110;51.536;7.562;2023-07-31T11:25:48;3.47;;;1.98;;
50219;SDS011;36110;51.536;7.562;2023-07-31T11:28:14;2.22;;;2.00;;
50219;SDS011;36110;51.536;7.562;2023-07-31T11:30:41;2.63;;;1.90;;
50219;SDS011;36110;51.536;7.562;2023-07-31T11:33:08;2.25;;;1.90;;
50219;SDS011;36110;51.536;7.562;2023-07-31T11:35:35;4.10;;;1.85;;
50219;SDS011;36110;51.536;7.562;2023-07-31T11:38:01;2.53;;;2.08;;
50219;SDS011;36110;51.536;7.562;2023-07-31T11:40:27;1.70;;;1.60;;
50219;SDS011;36110;51.536;7.562;2023-07-31T11:42:57;2.08;;;1.80;;
50219;SDS011;36110;51.536;7.562;2023-07-31T11:45:24;2.22;;;2.00;;
50219;SDS011;36110;51.536;7.562;2023-07-31T11:47:51;3.38;;;2.40;;
50219;SDS011;36110;51.536;7.562;2023-07-31T11:50:17;2.70;;;2.42;;
50219;SDS011;36110;51.536;7.562;2023-07-31T11:52:43;3.35;;;2.20;;
50219;SDS011;36110;51.536;7.562;2023-07-31T11:55:09;2.60;;;2.40;;
50219;SDS011;36110;51.536;7.562;2023-07-31T11:57:36;2.10;;;1.90;;
50219;SDS011;36110;51.536;7.562;2023-07-31T12:00:02;2.45;;;2.10;;
50219;SDS011;36110;51.536;7.562;2023-07-31T12:02:28;2.83;;;2.20;;
50219;SDS011;36110;51.536;7.562;2023-07-31T12:04:54;3.38;;;2.40;;
50219;SDS011;36110;51.536;7.562;2023-07-31T12:07:19;3.72;;;2.30;;
50219;SDS011;36110;51.536;7.562;2023-07-31T12:09:51;4.25;;;2.70;;
50219;SDS011;36110;51.536;7.562;2023-07-31T12:12:21;4.50;;;2.65;;
50219;SDS011;36110;51.536;7.562;2023-07-31T12:14:47;3.50;;;2.25;;
50219;SDS011;36110;51.536;7.562;2023-07-31T12:17:13;2.15;;;1.85;;
50219;SDS011;36110;51.536;7.562;2023-07-31T12:19:39;2.78;;;2.30;;
50219;SDS011;36110;51.536;7.562;2023-07-31T12:22:11;2.28;;;1.88;;
50219;SDS011;36110;51.536;7.562;2023-07-31T12:24:40;4.88;;;2.38;;
50219;SDS011;36110;51.536;7.562;2023-07-31T12:27:13;4.45;;;2.45;;
50219;SDS011;36110;51.536;7.562;2023-07-31T12:29:41;2.00;;;1.80;;
50219;SDS011;36110;51.536;7.562;2023-07-31T12:32:20;1.88;;;1.77;;
50219;SDS011;36110;51.536;7.562;2023-07-31T12:34:46;2.00;;;1.85;;
50219;SDS011;36110;51.536;7.562;2023-07-31T12:37:11;3.58;;;2.00;;
50219;SDS011;36110;51.536;7.562;2023-07-31T12:39:37;2.60;;;2.00;;
50219;SDS011;36110;51.536;7.562;2023-07-31T12:42:02;3.42;;;2.60;;
50219;SDS011;36110;51.536;7.562;2023-07-31T12:44:28;3.78;;;2.17;;
50219;SDS011;36110;51.536;7.562;2023-07-31T12:46:53;2.13;;;1.92;;
50219;SDS011;36110;51.536;7.562;2023-07-31T12:49:18;3.38;;;2.00;;
50219;SDS011;36110;51.536;7.562;2023-07-31T12:51:44;1.75;;;1.65;;
50219;SDS011;36110;51.536;7.562;2023-07-31T12:54:09;4.40;;;2.42;;
50219;SDS011;36110;51.536;7.562;2023-07-31T12:56:34;4.07;;;2.08;;
50219;SDS011;36110;51.536;7.562;2023-07-31T12:59:00;4.30;;;2.20;;
50219;SDS011;36110;51.536;7.562;2023-07-31T13:01:25;2.85;;;1.95;;
50219;SDS011;36110;51.536;7.562;2023-07-31T13:03:50;2.47;;;1.80;;
50219;SDS011;36110;51.536;7.562;2023-07-31T13:06:15;2.50;;;1.88;;
50219;SDS011;36110;51.536;7.562;2023-07-31T13:08:41;7.80;;;1.95;;
50219;SDS011;36110;51.536;7.562;2023-07-31T13:11:06;2.40;;;1.80;;
50219;SDS011;36110;51.536;7.562;2023-07-31T13:13:31;4.00;;;1.70;;
50219;SDS011;36110;51.536;7.562;2023-07-31T13:15:57;2.75;;;1.63;;
50219;SDS011;36110;51.536;7.562;2023-07-31T13:18:22;2.53;;;1.90;;
50219;SDS011;36110;51.536;7.562;2023-07-31T13:20:47;2.80;;;1.60;;
50219;SDS011;36110;51.536;7.562;2023-07-31T13:23:13;2.47;;;1.80;;
50219;SDS011;36110;51.536;7.562;2023-07-31T13:25:38;2.22;;;1.73;;
50219;SDS011;36110;51.536;7.562;2023-07-31T13:28:04;2.22;;;1.60;;
50219;SDS011;36110;51.536;7.562;2023-07-31T13:30:29;2.78;;;1.90;;
50219;SDS011;36110;51.536;7.562;2023-07-31T13:32:54;2.20;;;1.80;;
50219;SDS011;36110;51.536;7.562;2023-07-31T13:35:20;2.60;;;1.75;;
50219;SDS011;36110;51.536;7.562;2023-07-31T13:37:45;3.63;;;1.50;;
50219;SDS011;36110;51.536;7.562;2023-07-31T13:40:10;2.60;;;1.50;;
50219;SDS011;36110;51.536;7.562;2023-07-31T13:42:36;2.88;;;1.85;;
50219;SDS011;36110;51.536;7.562;2023-07-31T13:45:01;1.90;;;1.45;;
50219;SDS011;36110;51.536;7.562;2023-07-31T13:47:26;1.75;;;1.65;;
50219;SDS011;36110;51.536;7.562;2023-07-31T13:49:52;2.03;;;1.70;;
50219;SDS011;36110;51.536;7.562;2023-07-31T13:52:17;1.40;;;1.30;;
50219;SDS011;36110;51.536;7.562;2023-07-31T13:54:42;1.73;;;1.55;;
50219;SDS011;36110;51.536;7.562;2023-07-31T13:57:08;2.97;;;1.70;;
50219;SDS011;36110;51.536;7.562;2023-07-31T13:59:33;1.75;;;1.55;;
50219;SDS011;36110;51.536;7.562;2023-07-31T14:01:58;1.38;;;1.23;;
50219;SDS011;36110;51.536;7.562;2023-07-31T14:04:24;2.45;;;1.77;;
50219;SDS011;36110;51.536;7.562;2023-07-31T14:06:49;5.63;;;1.60;;
50219;SDS011;36110;51.536;7.562;2023-07-31T14:09:15;1.88;;;1.65;;
50219;SDS011;36110;51.536;7.562;2023-07-31T14:11:42;4.60;;;1.70;;
50219;SDS011;36110;51.536;7.562;2023-07-31T14:14:08;1.70;;;1.35;;
50219;SDS011;36110;51.536;7.562;2023-07-31T14:16:34;2.85;;;1.60;;
50219;SDS011;36110;51.536;7.562;2023-07-31T14:18:59;2.75;;;1.77;;
50219;SDS011;36110;51.536;7.562;2023-07-31T14:21:25;1.80;;;1.40;;
50219;SDS011;36110;51.536;7.562;2023-07-31T14:23:51;1.55;;;1.30;;
50219;SDS011;36110;51.536;7.562;2023-07-31T14:26:16;1.95;;;1.75;;
50219;SDS011;36110;51.536;7.562;2023-07-31T14:28:42;1.52;;;1.42;;
50219;SDS011;36110;51.536;7.562;2023-07-31T14:31:07;1.20;;;1.10;;
50219;SDS011;36110;51.536;7.562;2023-07-31T14:33:32;2.22;;;1.60;;
50219;SDS011;36110;51.536;7.562;2023-07-31T14:35:58;3.45;;;1.80;;
50219;SDS011;36110;51.536;7.562;2023-07-31T14:38:24;3.05;;;2.20;;
50219;SDS011;36110;51.536;7.562;2023-07-31T14:40:49;2.25;;;1.75;;
50219;SDS011;36110;51.536;7.562;2023-07-31T14:43:16;1.83;;;1.38;;
50219;SDS011;36110;51.536;7.562;2023-07-31T14:45:41;3.63;;;2.70;;
50219;SDS011;36110;51.536;7.562;2023-07-31T14:48:07;2.15;;;1.85;;
50219;SDS011;36110;51.536;7.562;2023-07-31T14:50:32;3.75;;;2.63;;
50219;SDS011;36110;51.536;7.562;2023-07-31T14:52:57;2.25;;;1.83;;
50219;SDS011;36110;51.536;7.562;2023-07-31T14:55:23;3.55;;;2.45;;
50219;SDS011;36110;51.536;7.562;2023-07-31T14:57:48;1.92;;;1.83;;